Time;durP1;ratioP1;P1;durP2;ratioP2;P2;SDS_P1;SDS_P2;PMS_P1;PMS_P2;Temp;Humidity;BMP_temperature;BMP_pressure;BME280_temperature;BME280_humidity;BME280_pressure;Samples;Min_cycle;Max_cycle;Signal;HPM_P1;HPM_P2
2022/11/04 00:01:20;;;;;;;6.43;4.88;;;19.60;99.90;;;;;;4151997;28;20278;-74
2022/11/04 00:03:22;;;;;;;5.90;4.18;;;19.60;99.90;;;;;;4145657;28;20241;-75
2022/11/04 00:05:24;;;;;;;5.30;4.45;;;19.70;99.90;;;;;;4143300;28;20268;-74
2022/11/04 00:09:46;;;;;;;5.75;4.03;;;19.60;99.90;;;;;;4140118;28;20197;-74
2022/11/04 00:14:09;;;;;;;5.80;3.72;;;19.60;99.90;;;;;;4145632;28;20205;-74
2022/11/04 00:18:35;;;;;;;5.15;3.90;;;19.60;99.90;;;;;;4141371;28;20193;-74
2022/11/04 00:29:58;;;;;;;4.65;4.10;;;19.60;99.90;;;;;;4139878;28;20193;-74
2022/11/04 00:34:21;;;;;;;6.57;4.45;;;19.50;99.90;;;;;;4147124;28;20193;-75
2022/11/04 00:36:25;;;;;;;4.68;3.72;;;19.50;99.90;;;;;;4146840;28;20611;-74
2022/11/04 00:38:27;;;;;;;5.40;4.10;;;19.50;99.90;;;;;;4146237;28;20653;-74
2022/11/04 00:40:30;;;;;;;5.63;4.50;;;19.50;99.90;;;;;;4154673;28;20213;-74
2022/11/04 00:42:32;;;;;;;4.43;3.65;;;19.50;99.90;;;;;;4143700;28;20240;-74
2022/11/04 00:44:34;;;;;;;5.63;4.05;;;19.50;99.90;;;;;;4147640;28;20321;-74
2022/11/04 00:46:37;;;;;;;4.30;3.88;;;19.50;99.90;;;;;;4141725;28;20235;-74
2022/11/04 00:48:39;;;;;;;6.05;4.28;;;19.50;99.90;;;;;;4145066;28;20271;-74
2022/11/04 00:50:43;;;;;;;6.55;4.13;;;19.50;99.90;;;;;;4145440;28;20217;-75
2022/11/04 00:52:45;;;;;;;7.97;4.53;;;19.50;99.90;;;;;;4149444;28;20263;-74
2022/11/04 00:54:48;;;;;;;5.15;4.45;;;19.50;99.90;;;;;;4139269;28;20225;-75
2022/11/04 00:56:52;;;;;;;6.22;4.25;;;19.50;99.90;;;;;;4145729;28;20629;-74
2022/11/04 00:58:54;;;;;;;4.72;3.85;;;19.50;99.90;;;;;;4145081;28;20280;-74
2022/11/04 01:00:57;;;;;;;6.43;4.13;;;19.50;99.90;;;;;;4147188;28;20294;-74
2022/11/04 01:02:59;;;;;;;4.80;4.13;;;19.50;99.90;;;;;;4145952;28;20256;-74
2022/11/04 01:05:02;;;;;;;5.20;4.10;;;19.50;99.90;;;;;;4146201;28;20217;-74
2022/11/04 01:07:05;;;;;;;5.05;4.20;;;19.50;99.90;;;;;;4143833;28;20217;-74
2022/11/04 01:09:10;;;;;;;4.80;3.95;;;19.50;99.90;;;;;;4143656;28;20217;-74
2022/11/04 01:11:14;;;;;;;5.20;3.80;;;19.50;99.90;;;;;;4143707;28;20221;-74
2022/11/04 01:13:16;;;;;;;5.13;4.15;;;19.50;99.90;;;;;;4143325;28;20225;-75
2022/11/04 01:15:19;;;;;;;4.03;3.50;;;19.50;99.90;;;;;;4144320;28;20216;-74
2022/11/04 01:17:21;;;;;;;4.70;3.50;;;19.50;99.90;;;;;;4149903;28;20220;-74
2022/11/04 01:19:23;;;;;;;4.43;3.90;;;19.40;99.90;;;;;;4147667;28;20323;-75
2022/11/04 01:21:26;;;;;;;4.10;3.63;;;19.50;99.90;;;;;;4143906;28;20224;-74
2022/11/04 01:23:29;;;;;;;5.28;3.60;;;19.50;99.90;;;;;;4143946;28;20245;-74
2022/11/04 01:25:32;;;;;;;4.55;3.70;;;19.40;99.90;;;;;;4151350;28;20661;-74
2022/11/04 01:27:34;;;;;;;6.40;4.45;;;19.40;99.90;;;;;;4152495;28;20658;-74
2022/11/04 01:29:36;;;;;;;5.20;3.78;;;19.40;99.90;;;;;;4145192;28;20221;-74
2022/11/04 01:31:39;;;;;;;6.55;3.92;;;19.50;99.90;;;;;;4145599;28;20220;-74
2022/11/04 01:33:41;;;;;;;6.18;4.25;;;19.40;99.90;;;;;;4143435;28;20336;-74
2022/11/04 01:35:44;;;;;;;5.38;3.72;;;19.40;99.90;;;;;;4149677;28;20728;-74
2022/11/04 01:37:46;;;;;;;3.95;3.50;;;19.40;99.90;;;;;;4150254;28;20274;-75
2022/11/04 01:39:49;;;;;;;4.38;3.40;;;19.40;99.90;;;;;;4144519;28;20213;-74
2022/11/04 01:41:52;;;;;;;8.82;3.83;;;19.40;99.90;;;;;;4146729;28;20221;-74
2022/11/04 01:43:56;;;;;;;5.50;3.83;;;19.40;99.90;;;;;;4144656;28;20295;-74
2022/11/04 01:46:00;;;;;;;4.50;3.65;;;19.40;99.90;;;;;;4144092;28;20629;-74
2022/11/04 01:48:05;;;;;;;5.07;3.70;;;19.40;99.90;;;;;;4148179;28;20217;-74
2022/11/04 01:50:12;;;;;;;6.38;3.60;;;19.40;99.90;;;;;;4145892;28;20267;-74
2022/11/04 01:52:18;;;;;;;4.35;3.40;;;19.40;99.90;;;;;;4144926;28;20268;-75
2022/11/04 01:54:21;;;;;;;4.53;3.95;;;19.40;99.90;;;;;;4142185;28;20268;-74
2022/11/04 01:56:26;;;;;;;4.63;3.60;;;19.40;99.90;;;;;;4144337;28;20260;-74
2022/11/04 01:58:32;;;;;;;4.75;4.20;;;19.40;99.90;;;;;;4144670;28;20217;-74
2022/11/04 02:00:35;;;;;;;4.53;3.42;;;19.40;99.90;;;;;;4144081;28;20630;-74
2022/11/04 02:02:43;;;;;;;5.05;4.00;;;19.30;99.90;;;;;;4147234;28;20229;-74
2022/11/04 02:04:46;;;;;;;6.00;3.88;;;19.30;99.90;;;;;;4147689;28;20624;-74
2022/11/04 02:06:50;;;;;;;5.68;3.95;;;19.30;99.90;;;;;;4147536;28;20259;-74
2022/11/04 02:08:53;;;;;;;5.38;3.13;;;19.30;99.90;;;;;;4147346;28;20221;-74
2022/11/04 02:11:04;;;;;;;5.75;3.83;;;19.30;99.90;;;;;;4147121;28;20231;-74
2022/11/04 02:13:07;;;;;;;4.35;3.65;;;19.30;99.90;;;;;;4142347;28;20263;-74
2022/11/04 02:15:11;;;;;;;5.55;3.55;;;19.30;99.90;;;;;;4150149;28;20221;-73
2022/11/04 02:17:29;;;;;;;6.75;3.88;;;19.30;99.90;;;;;;4147251;28;20271;-74
2022/11/04 02:19:53;;;;;;;3.80;3.00;;;19.30;99.90;;;;;;4147682;28;20312;-74
2022/11/04 02:22:17;;;;;;;6.55;3.58;;;19.30;99.90;;;;;;4142858;28;20287;-74
2022/11/04 02:24:54;;;;;;;4.25;3.35;;;19.30;99.90;;;;;;4147272;28;20237;-74
2022/11/04 02:27:28;;;;;;;6.85;3.95;;;19.30;99.90;;;;;;4139703;28;20275;-73
2022/11/04 02:30:03;;;;;;;4.82;3.50;;;19.30;99.90;;;;;;4151730;28;20220;-74
2022/11/04 02:32:16;;;;;;;4.88;3.55;;;19.20;99.90;;;;;;4137180;28;20614;-74
2022/11/04 02:34:24;;;;;;;4.43;3.30;;;19.20;99.90;;;;;;4146826;28;20263;-74
2022/11/04 02:36:35;;;;;;;5.03;3.20;;;19.20;99.90;;;;;;4148035;28;20214;-74
2022/11/04 02:38:45;;;;;;;4.32;3.38;;;19.30;99.90;;;;;;4143767;28;20258;-74
2022/11/04 02:40:59;;;;;;;5.22;3.45;;;19.30;99.90;;;;;;4147161;28;20279;-74
2022/11/04 02:43:10;;;;;;;5.20;3.40;;;19.20;99.90;;;;;;4132388;28;20427;-74
2022/11/04 02:45:17;;;;;;;6.32;3.85;;;19.20;99.90;;;;;;4144321;28;20259;-74
2022/11/04 02:47:26;;;;;;;6.07;3.70;;;19.20;99.90;;;;;;4147816;28;20622;-74
2022/11/04 02:49:35;;;;;;;5.95;3.42;;;19.30;99.90;;;;;;4151732;28;20723;-74
2022/11/04 02:51:43;;;;;;;5.45;3.33;;;19.20;99.90;;;;;;4146887;28;20225;-75
2022/11/04 02:53:50;;;;;;;6.22;3.53;;;19.20;99.90;;;;;;4146326;28;20523;-74
2022/11/04 02:55:57;;;;;;;4.25;3.30;;;19.20;99.90;;;;;;4147725;28;20217;-74
2022/11/04 02:58:02;;;;;;;5.05;3.33;;;19.20;99.90;;;;;;4146327;28;20292;-74
2022/11/04 03:00:07;;;;;;;6.65;3.78;;;19.20;99.90;;;;;;4143157;28;20252;-74
2022/11/04 03:02:16;;;;;;;5.07;3.20;;;19.20;99.90;;;;;;4145476;28;20217;-73
2022/11/04 03:04:24;;;;;;;4.53;3.22;;;19.20;99.90;;;;;;4146249;28;20241;-74
2022/11/04 03:06:28;;;;;;;4.65;3.55;;;19.20;99.90;;;;;;4145293;28;20986;-74
2022/11/04 03:08:33;;;;;;;4.35;2.92;;;19.20;99.90;;;;;;4143569;28;20213;-74
2022/11/04 03:10:39;;;;;;;5.78;3.03;;;19.20;99.90;;;;;;4147693;28;20627;-74
2022/11/04 03:12:48;;;;;;;5.07;3.30;;;19.20;99.90;;;;;;4146565;28;20221;-76
2022/11/04 03:14:54;;;;;;;5.85;3.38;;;19.20;99.90;;;;;;4146334;28;20220;-74
2022/11/04 03:17:02;;;;;;;5.97;3.47;;;19.20;99.90;;;;;;4144309;28;20229;-74
2022/11/04 03:19:12;;;;;;;4.97;3.33;;;19.20;99.90;;;;;;4145378;28;21415;-74
2022/11/04 03:21:18;;;;;;;5.05;3.05;;;19.20;99.90;;;;;;4146857;28;20220;-74
2022/11/04 03:23:21;;;;;;;5.53;3.30;;;19.20;99.90;;;;;;4151995;28;20221;-74
2022/11/04 03:25:28;;;;;;;5.00;3.17;;;19.20;99.90;;;;;;4149774;28;20713;-74
2022/11/04 03:27:41;;;;;;;4.00;2.63;;;19.20;99.90;;;;;;4149396;28;20216;-73
2022/11/04 03:29:53;;;;;;;4.38;3.13;;;19.20;99.90;;;;;;4150815;28;20627;-74
2022/11/04 03:32:04;;;;;;;6.03;3.50;;;19.20;99.90;;;;;;4144063;28;20220;-74
2022/11/04 03:34:07;;;;;;;5.47;2.92;;;19.10;99.90;;;;;;4150291;28;20665;-74
2022/11/04 03:36:09;;;;;;;7.68;3.35;;;19.20;99.90;;;;;;4145894;28;20213;-75
2022/11/04 03:38:13;;;;;;;3.92;3.13;;;19.10;99.90;;;;;;4153641;28;20674;-74
2022/11/04 03:40:17;;;;;;;6.25;3.30;;;19.10;99.90;;;;;;4150944;28;20267;-74
2022/11/04 03:42:21;;;;;;;4.50;2.90;;;19.20;99.90;;;;;;4146389;28;20217;-75
2022/11/04 03:44:24;;;;;;;4.70;3.28;;;19.20;99.90;;;;;;4144727;28;20268;-74
2022/11/04 03:46:27;;;;;;;4.28;2.70;;;19.20;99.90;;;;;;4146573;28;20264;-74
2022/11/04 03:48:29;;;;;;;3.25;2.80;;;19.20;99.90;;;;;;4146770;28;20225;-74
2022/11/04 03:50:34;;;;;;;5.40;3.10;;;19.10;99.90;;;;;;4149079;28;20547;-74
2022/11/04 03:52:37;;;;;;;5.80;3.53;;;19.20;99.90;;;;;;4147367;28;20220;-74
2022/11/04 03:54:40;;;;;;;3.70;3.00;;;19.10;99.90;;;;;;4154951;28;20692;-74
2022/11/04 03:57:09;;;;;;;4.78;2.90;;;19.10;99.90;;;;;;4148062;28;20272;-74
2022/11/04 03:59:31;;;;;;;4.40;2.70;;;19.10;99.90;;;;;;4145751;28;20221;-74
2022/11/04 04:01:42;;;;;;;4.82;3.10;;;19.10;99.90;;;;;;4153484;28;20217;-74
2022/11/04 04:03:53;;;;;;;4.18;3.22;;;19.10;99.90;;;;;;4147312;28;20286;-74
2022/11/04 04:05:59;;;;;;;4.80;2.80;;;19.20;99.90;;;;;;4143696;28;20204;-74
2022/11/04 04:08:13;;;;;;;5.47;2.47;;;19.10;99.90;;;;;;4146444;28;20336;-74
2022/11/04 04:10:38;;;;;;;3.95;2.60;;;19.10;99.90;;;;;;4144260;28;20288;-75
2022/11/04 04:12:42;;;;;;;4.05;2.85;;;19.10;99.90;;;;;;4143473;28;20275;-75
2022/11/04 04:14:49;;;;;;;5.13;2.95;;;19.10;99.90;;;;;;4151465;28;20201;-75
2022/11/04 04:16:54;;;;;;;3.97;2.70;;;19.10;99.90;;;;;;4145690;28;20708;-75
2022/11/04 04:19:01;;;;;;;4.45;2.70;;;19.10;99.90;;;;;;4147372;28;20287;-75
2022/11/04 04:21:08;;;;;;;5.03;2.67;;;19.10;99.90;;;;;;4153663;28;20216;-74
2022/11/04 04:27:57;;;;;;;4.28;2.92;;;19.10;99.90;;;;;;4123182;28;20270;-75
2022/11/04 04:30:02;;;;;;;5.43;2.80;;;19.10;99.90;;;;;;4148155;28;20229;-74
2022/11/04 04:32:06;;;;;;;4.80;2.72;;;19.10;99.90;;;;;;4138849;28;20213;-74
2022/11/04 04:34:09;;;;;;;3.53;2.60;;;19.10;99.90;;;;;;4146349;28;20214;-74
2022/11/04 04:36:11;;;;;;;3.85;2.75;;;19.10;99.90;;;;;;4144910;28;20287;-74
2022/11/04 04:45:23;;;;;;;4.68;2.50;;;19.10;99.90;;;;;;4144261;28;20229;-74
2022/11/04 04:47:29;;;;;;;4.80;3.03;;;19.10;99.90;;;;;;4147929;28;20209;-74
2022/11/04 04:49:33;;;;;;;5.22;2.90;;;19.10;99.90;;;;;;4145476;28;20279;-75
2022/11/04 04:51:41;;;;;;;4.38;2.90;;;19.10;99.90;;;;;;4147783;28;20294;-75
2022/11/04 04:53:43;;;;;;;3.80;2.45;;;19.10;99.90;;;;;;4142242;28;20222;-75
2022/11/04 04:55:46;;;;;;;3.97;2.72;;;19.10;99.90;;;;;;4150295;28;20643;-75
2022/11/04 04:57:49;;;;;;;4.63;2.97;;;19.10;99.90;;;;;;4147129;28;21283;-75
2022/11/04 04:59:51;;;;;;;4.63;2.65;;;19.00;99.90;;;;;;4142791;28;20359;-74
2022/11/04 05:01:53;;;;;;;3.83;2.53;;;19.00;99.90;;;;;;4143915;28;20267;-75
2022/11/04 05:03:56;;;;;;;4.03;2.53;;;19.10;99.90;;;;;;4143127;28;20225;-74
2022/11/04 05:05:59;;;;;;;4.25;3.08;;;19.10;99.90;;;;;;4144858;28;20237;-75
2022/11/04 05:08:06;;;;;;;4.07;2.33;;;19.10;99.90;;;;;;4144844;28;20225;-75
2022/11/04 05:10:10;;;;;;;6.35;2.85;;;19.10;99.90;;;;;;4145193;28;20312;-75
2022/11/04 05:12:14;;;;;;;4.90;2.85;;;19.10;99.90;;;;;;4144623;28;20359;-75
2022/11/04 05:14:15;;;;;;;4.82;2.92;;;19.10;99.90;;;;;;4149515;28;20217;-75
2022/11/04 05:16:17;;;;;;;3.55;2.50;;;19.10;99.90;;;;;;4144206;28;20959;-75
2022/11/04 05:18:20;;;;;;;4.68;2.75;;;19.10;99.90;;;;;;4145596;28;20213;-75
2022/11/04 05:20:22;;;;;;;3.03;2.42;;;19.10;99.90;;;;;;4144697;28;20221;-75
2022/11/04 05:22:25;;;;;;;3.97;2.28;;;19.10;99.90;;;;;;4144373;28;20263;-75
2022/11/04 05:24:27;;;;;;;4.68;2.50;;;19.00;99.90;;;;;;4146853;28;20727;-74
2022/11/04 05:26:30;;;;;;;3.45;2.70;;;19.00;99.90;;;;;;4142803;28;20654;-75
2022/11/04 05:28:33;;;;;;;4.03;2.42;;;19.10;99.90;;;;;;4144763;28;20307;-74
2022/11/04 05:30:36;;;;;;;3.03;2.22;;;19.00;99.90;;;;;;4151667;28;20221;-75
2022/11/04 05:32:38;;;;;;;2.83;2.10;;;19.10;99.90;;;;;;4151285;28;20213;-74
2022/11/04 05:34:40;;;;;;;7.20;2.90;;;19.00;99.90;;;;;;4142559;28;20275;-75
2022/11/04 05:36:43;;;;;;;4.20;2.42;;;19.00;99.90;;;;;;4146613;28;20605;-75
2022/11/04 05:38:51;;;;;;;4.50;2.80;;;19.00;99.90;;;;;;4149789;28;20561;-75
2022/11/04 05:40:53;;;;;;;5.72;3.05;;;19.00;99.90;;;;;;4153699;28;20292;-75
2022/11/04 05:42:58;;;;;;;4.70;2.63;;;19.00;99.90;;;;;;4147154;28;20220;-75
2022/11/04 05:45:02;;;;;;;3.65;2.55;;;19.00;99.90;;;;;;4150438;28;20758;-75
2022/11/04 05:47:04;;;;;;;4.05;2.30;;;19.00;99.90;;;;;;4152599;28;20239;-75
2022/11/04 05:49:06;;;;;;;4.80;2.30;;;19.00;99.90;;;;;;4148591;28;20216;-75
2022/11/04 05:51:12;;;;;;;4.70;2.88;;;19.00;99.90;;;;;;4147034;28;20217;-75
2022/11/04 05:53:14;;;;;;;5.70;2.50;;;19.00;99.90;;;;;;4152095;28;20642;-75
2022/11/04 05:55:17;;;;;;;4.07;2.40;;;19.00;99.90;;;;;;4153089;28;20618;-75
2022/11/04 05:57:19;;;;;;;4.72;2.10;;;19.00;99.90;;;;;;4151229;28;20221;-75
2022/11/04 05:59:21;;;;;;;3.80;2.10;;;19.10;99.90;;;;;;4145853;28;20271;-75
2022/11/04 06:01:28;;;;;;;3.47;2.20;;;19.00;99.90;;;;;;4146093;28;20217;-75
2022/11/04 06:03:30;;;;;;;4.05;2.25;;;19.00;99.90;;;;;;4150349;28;20275;-75
2022/11/04 06:05:32;;;;;;;3.85;2.40;;;19.00;99.90;;;;;;4152028;28;20974;-75
2022/11/04 06:07:35;;;;;;;5.22;2.38;;;19.00;99.90;;;;;;4149103;28;20654;-75
2022/11/04 06:09:40;;;;;;;3.65;1.90;;;18.90;99.90;;;;;;4146093;28;20221;-75
2022/11/04 06:11:42;;;;;;;5.13;2.22;;;18.90;99.90;;;;;;4148568;28;20268;-75
2022/11/04 06:13:45;;;;;;;5.15;2.20;;;18.90;99.90;;;;;;4152498;28;20263;-74
2022/11/04 06:15:47;;;;;;;4.18;2.30;;;18.90;99.90;;;;;;4147737;28;20217;-75
2022/11/04 06:17:50;;;;;;;7.07;2.22;;;18.90;99.90;;;;;;4147820;28;20217;-75
2022/11/04 06:19:53;;;;;;;4.28;2.40;;;18.90;99.90;;;;;;4143169;28;20221;-75
2022/11/04 06:21:55;;;;;;;3.95;2.25;;;18.90;99.90;;;;;;4148842;28;20236;-75
2022/11/04 06:23:59;;;;;;;4.47;2.00;;;18.90;99.90;;;;;;4146796;28;20646;-75
2022/11/04 06:26:01;;;;;;;3.30;1.95;;;18.90;99.90;;;;;;4146325;28;20291;-75
2022/11/04 06:28:04;;;;;;;2.88;1.83;;;18.90;99.90;;;;;;4150187;28;20225;-75
2022/11/04 06:30:07;;;;;;;3.30;1.77;;;18.90;99.90;;;;;;4147673;28;20330;-75
2022/11/04 06:32:11;;;;;;;4.50;2.30;;;18.90;99.90;;;;;;4144319;28;20631;-75
2022/11/04 06:34:15;;;;;;;3.70;1.92;;;18.90;99.90;;;;;;4145023;28;20225;-75
2022/11/04 06:36:17;;;;;;;4.20;2.20;;;18.90;99.90;;;;;;4152032;28;20213;-75
2022/11/04 06:38:20;;;;;;;3.13;1.95;;;18.90;99.90;;;;;;4148391;28;20217;-75
2022/11/04 06:40:22;;;;;;;4.20;2.15;;;18.90;99.90;;;;;;4145566;28;20268;-75
2022/11/04 06:42:26;;;;;;;3.10;1.90;;;18.90;99.90;;;;;;4146090;28;20221;-75
2022/11/04 06:44:28;;;;;;;3.33;1.92;;;18.90;99.90;;;;;;4151191;28;20260;-75
2022/11/04 06:46:34;;;;;;;3.13;1.80;;;18.90;99.90;;;;;;4147501;28;20255;-75
2022/11/04 06:48:37;;;;;;;2.60;1.83;;;18.90;99.90;;;;;;4143205;28;20267;-75
2022/11/04 06:50:40;;;;;;;2.58;2.00;;;18.90;99.90;;;;;;4145570;28;20217;-75
2022/11/04 06:52:43;;;;;;;2.88;1.80;;;18.90;99.90;;;;;;4153396;28;20222;-75
2022/11/04 06:54:46;;;;;;;3.30;2.00;;;19.00;99.90;;;;;;4148688;28;20289;-75
2022/11/04 06:56:49;;;;;;;2.67;2.05;;;18.90;99.90;;;;;;4145902;28;20263;-75
2022/11/04 06:58:53;;;;;;;2.72;1.90;;;18.90;99.90;;;;;;4146241;28;20376;-75
2022/11/04 07:00:55;;;;;;;4.15;2.15;;;18.90;99.90;;;;;;4144132;28;20213;-75
2022/11/04 07:02:57;;;;;;;3.20;1.80;;;18.90;99.90;;;;;;4147796;28;20252;-75
2022/11/04 07:05:00;;;;;;;3.13;1.80;;;18.90;99.90;;;;;;4144835;28;20704;-75
2022/11/04 07:07:03;;;;;;;2.55;1.67;;;18.90;99.90;;;;;;4145265;28;20620;-75
2022/11/04 07:09:06;;;;;;;3.45;1.90;;;18.90;99.90;;;;;;4149031;28;20239;-75
2022/11/04 07:11:08;;;;;;;3.92;1.75;;;18.90;99.90;;;;;;4150934;28;20224;-75
2022/11/04 07:13:10;;;;;;;2.28;1.50;;;18.90;99.90;;;;;;4148496;28;21020;-75
2022/11/04 07:15:13;;;;;;;2.60;1.98;;;18.90;99.90;;;;;;4145687;28;20294;-74
2022/11/04 07:17:15;;;;;;;2.58;1.63;;;18.90;99.90;;;;;;4150292;28;20224;-75
2022/11/04 07:19:17;;;;;;;2.65;1.70;;;18.90;99.90;;;;;;4151155;28;20283;-75
2022/11/04 07:21:20;;;;;;;2.25;1.58;;;18.90;99.90;;;;;;4144340;28;20212;-75
2022/11/04 07:23:23;;;;;;;3.47;1.65;;;18.90;99.90;;;;;;4150940;28;20286;-75
2022/11/04 07:25:26;;;;;;;2.00;1.60;;;18.90;99.90;;;;;;4154717;28;20216;-75
2022/11/04 07:27:28;;;;;;;4.20;2.00;;;18.90;99.90;;;;;;4146066;28;20241;-75
2022/11/04 07:29:30;;;;;;;3.40;1.77;;;19.00;99.90;;;;;;4146290;28;20244;-75
2022/11/04 07:31:33;;;;;;;3.30;1.42;;;18.90;99.90;;;;;;4151998;28;20267;-75
2022/11/04 07:33:35;;;;;;;3.20;2.00;;;18.90;99.90;;;;;;4153617;28;20224;-75
2022/11/04 07:35:37;;;;;;;4.25;2.15;;;18.90;99.90;;;;;;4146136;28;20225;-75
2022/11/04 07:37:40;;;;;;;2.60;1.80;;;18.90;99.90;;;;;;4145860;28;20220;-75
2022/11/04 07:39:43;;;;;;;2.20;1.38;;;18.90;99.90;;;;;;4144481;28;20323;-75
2022/11/04 07:41:45;;;;;;;3.33;1.85;;;19.00;99.90;;;;;;4152690;28;20217;-75
2022/11/04 07:43:49;;;;;;;1.92;1.55;;;18.90;99.90;;;;;;4152723;28;20221;-75
2022/11/04 07:45:59;;;;;;;3.28;1.67;;;18.90;99.90;;;;;;4146048;28;20933;-75
2022/11/04 07:48:02;;;;;;;2.88;1.70;;;18.90;99.90;;;;;;4145840;28;20225;-75
2022/11/04 07:50:05;;;;;;;2.38;1.50;;;19.00;99.90;;;;;;4153393;28;20885;-75
2022/11/04 07:52:08;;;;;;;3.10;1.52;;;18.90;99.90;;;;;;4145101;28;20257;-75
2022/11/04 07:54:10;;;;;;;2.60;1.83;;;18.90;99.90;;;;;;4145785;28;20221;-75
2022/11/04 07:56:14;;;;;;;2.00;1.58;;;18.90;99.90;;;;;;4144101;28;20278;-75
2022/11/04 07:58:17;;;;;;;2.60;1.67;;;18.90;99.90;;;;;;4154041;28;20216;-75
2022/11/04 08:00:20;;;;;;;1.98;1.58;;;18.90;99.90;;;;;;4144640;28;20260;-75
2022/11/04 08:02:22;;;;;;;1.80;1.30;;;18.90;99.90;;;;;;4146976;28;20567;-75
2022/11/04 08:04:24;;;;;;;2.10;1.50;;;18.90;99.90;;;;;;4150421;28;20217;-74
2022/11/04 08:06:27;;;;;;;3.45;1.27;;;18.90;99.90;;;;;;4139876;28;20701;-73
2022/11/04 08:08:29;;;;;;;2.20;1.50;;;18.90;99.90;;;;;;4131535;28;20216;-75
2022/11/04 08:10:32;;;;;;;1.92;1.50;;;18.90;99.90;;;;;;4137625;28;20615;-75
2022/11/04 08:12:36;;;;;;;7.57;1.98;;;18.90;99.90;;;;;;4138962;28;20299;-74
2022/11/04 08:14:39;;;;;;;4.43;1.58;;;19.00;99.90;;;;;;4143677;28;20216;-72
2022/11/04 08:16:41;;;;;;;4.50;1.60;;;19.00;99.90;;;;;;4140595;28;20209;-72
2022/11/04 08:18:44;;;;;;;5.00;1.80;;;19.10;99.90;;;;;;4143961;28;20213;-73
2022/11/04 08:20:51;;;;;;;4.28;1.80;;;19.20;99.90;;;;;;4143931;28;20678;-73
2022/11/04 08:22:53;;;;;;;2.88;1.67;;;19.20;99.90;;;;;;4139756;28;20212;-75
2022/11/04 08:24:55;;;;;;;10.02;2.05;;;19.30;99.90;;;;;;4127363;28;20225;-74
2022/11/04 08:26:58;;;;;;;2.30;1.50;;;19.30;99.90;;;;;;4139869;28;20291;-74
2022/11/04 08:29:02;;;;;;;6.43;1.73;;;19.30;99.90;;;;;;4142481;28;20283;-73
2022/11/04 08:31:06;;;;;;;4.50;1.55;;;19.30;99.90;;;;;;4142020;28;20213;-75
2022/11/04 08:33:09;;;;;;;3.05;1.50;;;19.30;99.90;;;;;;4141386;28;20216;-72
2022/11/04 08:35:11;;;;;;;4.25;1.60;;;19.30;99.90;;;;;;4145520;28;20217;-73
2022/11/04 08:37:14;;;;;;;5.00;1.52;;;19.30;99.90;;;;;;4141934;28;20268;-72
2022/11/04 08:39:17;;;;;;;4.80;1.70;;;19.30;99.90;;;;;;4144387;28;20229;-74
2022/11/04 08:41:22;;;;;;;3.22;1.48;;;19.30;99.90;;;;;;4149533;28;20653;-73
2022/11/04 08:43:24;;;;;;;3.00;1.70;;;19.30;99.90;;;;;;4141289;28;20225;-74
2022/11/04 08:45:28;;;;;;;2.92;1.48;;;19.30;99.90;;;;;;4142396;28;20256;-72
2022/11/04 08:47:30;;;;;;;2.92;1.55;;;19.40;99.90;;;;;;4144500;28;20252;-73
2022/11/04 08:49:37;;;;;;;3.72;1.98;;;19.30;99.90;;;;;;4139740;28;20571;-74
2022/11/04 08:51:42;;;;;;;5.38;1.98;;;19.50;99.90;;;;;;4140291;28;20248;-74
2022/11/04 08:53:44;;;;;;;6.10;1.83;;;19.40;99.90;;;;;;4143449;28;20356;-75
2022/11/04 08:55:47;;;;;;;5.07;1.77;;;19.40;99.90;;;;;;4143661;28;20534;-73
2022/11/04 08:57:50;;;;;;;2.97;1.73;;;19.40;99.90;;;;;;4145076;28;20327;-72
2022/11/04 08:59:52;;;;;;;4.38;1.88;;;19.40;99.90;;;;;;4139776;28;20319;-72
2022/11/04 09:01:56;;;;;;;5.95;1.90;;;19.30;99.90;;;;;;4138692;28;20217;-73
2022/11/04 09:03:58;;;;;;;4.53;2.22;;;19.40;99.90;;;;;;4138289;28;20237;-74
2022/11/04 09:06:00;;;;;;;5.53;1.80;;;19.40;99.90;;;;;;4138088;28;20268;-74
2022/11/04 09:08:03;;;;;;;4.18;1.77;;;19.50;99.90;;;;;;4143420;28;20245;-74
2022/11/04 09:10:07;;;;;;;3.50;1.85;;;19.40;99.90;;;;;;4142385;28;20747;-75
2022/11/04 09:12:10;;;;;;;3.85;1.58;;;19.50;99.90;;;;;;4139993;28;20260;-74
2022/11/04 09:14:12;;;;;;;9.70;2.30;;;19.50;99.90;;;;;;4137442;28;20271;-74
2022/11/04 09:16:15;;;;;;;3.60;1.50;;;19.50;99.90;;;;;;4138281;28;20217;-74
2022/11/04 09:18:18;;;;;;;4.75;1.55;;;19.50;99.90;;;;;;4135699;28;20213;-75
2022/11/04 09:20:21;;;;;;;3.15;2.00;;;19.50;99.90;;;;;;4134402;28;20217;-75
2022/11/04 09:22:23;;;;;;;4.88;1.90;;;19.50;99.90;;;;;;4137735;28;20217;-75
2022/11/04 09:24:25;;;;;;;3.05;1.63;;;19.50;99.90;;;;;;4140909;28;20225;-74
2022/11/04 09:26:28;;;;;;;7.05;1.80;;;19.50;99.90;;;;;;4135044;28;20217;-74
2022/11/04 09:28:30;;;;;;;3.88;1.73;;;19.60;99.90;;;;;;4130675;28;20279;-75
2022/11/04 09:30:33;;;;;;;7.55;1.52;;;19.50;99.90;;;;;;4135769;28;20275;-74
2022/11/04 09:32:35;;;;;;;3.42;1.60;;;19.50;99.90;;;;;;4136286;28;20622;-74
2022/11/04 09:34:39;;;;;;;4.70;2.10;;;19.50;99.90;;;;;;4135788;28;20277;-73
2022/11/04 09:36:42;;;;;;;3.58;1.83;;;19.60;99.90;;;;;;4131836;28;20268;-73
2022/11/04 09:38:44;;;;;;;4.43;1.83;;;19.60;99.90;;;;;;4129390;28;20717;-75
2022/11/04 09:40:49;;;;;;;4.30;1.70;;;19.60;99.90;;;;;;4134790;28;20276;-75
2022/11/04 09:43:06;;;;;;;6.10;1.80;;;19.60;99.90;;;;;;4132970;28;20220;-76
2022/11/04 09:45:12;;;;;;;5.57;1.65;;;19.70;99.90;;;;;;4129819;28;20217;-75
2022/11/04 09:47:15;;;;;;;5.00;1.90;;;19.70;99.90;;;;;;4139815;28;20290;-73
2022/11/04 09:49:18;;;;;;;4.90;1.70;;;19.70;99.90;;;;;;4135724;28;20216;-73
2022/11/04 09:51:26;;;;;;;3.10;1.60;;;19.60;99.90;;;;;;4128266;28;20276;-74
2022/11/04 09:53:34;;;;;;;2.78;1.30;;;19.60;99.90;;;;;;4139265;28;20216;-74
2022/11/04 09:55:45;;;;;;;3.55;1.50;;;19.60;99.90;;;;;;4149665;28;20287;-73
2022/11/04 09:57:53;;;;;;;3.33;1.73;;;19.70;99.90;;;;;;4136635;28;20221;-74
2022/11/04 09:59:55;;;;;;;5.90;1.80;;;19.70;99.90;;;;;;4141266;28;20217;-74
2022/11/04 10:02:17;;;;;;;4.50;1.50;;;19.80;99.90;;;;;;4139488;28;20303;-75
2022/11/04 10:04:27;;;;;;;4.30;1.63;;;19.70;99.90;;;;;;4141902;28;20233;-76
2022/11/04 10:06:41;;;;;;;4.32;2.03;;;19.80;99.90;;;;;;4132446;28;20213;-75
2022/11/04 10:08:58;;;;;;;2.58;1.63;;;19.80;99.90;;;;;;4144588;28;20233;-74
2022/11/04 10:11:05;;;;;;;3.20;1.58;;;19.80;99.90;;;;;;4134545;28;20240;-73
2022/11/04 10:13:24;;;;;;;3.35;1.63;;;19.80;99.90;;;;;;4137327;28;20209;-74
2022/11/04 10:15:41;;;;;;;3.65;1.85;;;19.80;99.90;;;;;;4139704;28;20293;-74
2022/11/04 10:17:59;;;;;;;6.05;1.92;;;19.80;99.90;;;;;;4139777;28;20209;-72
2022/11/04 10:20:18;;;;;;;4.25;1.70;;;19.80;99.90;;;;;;4139996;28;20573;-73
2022/11/04 10:22:31;;;;;;;5.45;1.85;;;19.80;99.90;;;;;;4135428;28;20661;-74
2022/11/04 10:24:41;;;;;;;6.38;1.55;;;19.80;99.90;;;;;;4141674;28;20209;-72
2022/11/04 10:26:46;;;;;;;9.52;2.15;;;19.80;99.90;;;;;;4143805;28;20213;-73
2022/11/04 10:28:56;;;;;;;4.22;2.08;;;19.80;99.90;;;;;;4140195;28;20245;-73
2022/11/04 10:31:00;;;;;;;2.95;1.42;;;19.80;99.90;;;;;;4145545;28;20633;-74
2022/11/04 10:33:10;;;;;;;6.10;2.40;;;19.80;99.90;;;;;;4145950;28;20251;-73
2022/11/04 10:35:21;;;;;;;9.55;2.10;;;19.80;99.90;;;;;;4145365;28;20277;-72
2022/11/04 10:37:26;;;;;;;3.33;1.75;;;19.80;99.90;;;;;;4144763;28;20216;-72
2022/11/04 10:39:32;;;;;;;4.75;1.85;;;19.80;99.90;;;;;;4143348;28;20220;-72
2022/11/04 10:41:36;;;;;;;5.90;2.00;;;19.80;99.90;;;;;;4145067;28;20279;-72
2022/11/04 10:43:41;;;;;;;3.20;1.70;;;19.80;99.90;;;;;;4141425;28;20303;-72
2022/11/04 10:45:52;;;;;;;4.18;1.70;;;19.80;99.90;;;;;;4141889;28;21127;-72
2022/11/04 10:48:01;;;;;;;4.80;1.85;;;19.90;99.90;;;;;;4141289;28;20232;-72
2022/11/04 10:50:24;;;;;;;4.38;2.08;;;19.90;99.90;;;;;;4137865;28;20713;-72
2022/11/04 10:52:27;;;;;;;5.85;2.10;;;19.90;99.90;;;;;;4144830;28;20217;-73
2022/11/04 10:54:35;;;;;;;7.18;1.92;;;19.90;99.90;;;;;;4140933;28;20221;-72
2022/11/04 10:56:42;;;;;;;4.55;2.20;;;19.90;99.90;;;;;;4142494;28;20224;-72
2022/11/04 10:58:46;;;;;;;3.35;2.03;;;19.90;99.90;;;;;;4137512;28;20278;-72
2022/11/04 11:00:50;;;;;;;6.05;1.85;;;19.90;99.90;;;;;;4137228;28;20221;-72
2022/11/04 11:02:52;;;;;;;5.15;2.20;;;19.90;99.90;;;;;;4137554;28;20755;-73
2022/11/04 11:05:13;;;;;;;4.22;1.90;;;19.90;99.90;;;;;;4137695;28;20657;-74
2022/11/04 11:07:21;;;;;;;3.85;1.90;;;20.00;99.90;;;;;;4141430;28;20259;-74
2022/11/04 11:09:28;;;;;;;6.45;2.13;;;19.90;99.90;;;;;;4136221;28;20241;-74
2022/11/04 11:11:46;;;;;;;5.88;2.00;;;19.90;99.90;;;;;;4141908;28;20259;-74
2022/11/04 11:13:50;;;;;;;4.85;2.15;;;20.00;99.90;;;;;;4142442;28;20653;-72
2022/11/04 11:16:07;;;;;;;4.55;2.20;;;19.90;99.90;;;;;;4137186;28;20217;-72
2022/11/04 11:18:16;;;;;;;4.18;2.03;;;20.00;99.90;;;;;;4138485;28;20267;-72
2022/11/04 11:20:22;;;;;;;5.03;1.85;;;19.90;99.90;;;;;;4141981;28;20272;-72
2022/11/04 11:22:46;;;;;;;5.03;2.03;;;19.90;99.90;;;;;;4141197;28;20280;-74
2022/11/04 11:24:50;;;;;;;4.22;2.30;;;20.00;99.90;;;;;;4137130;28;20255;-74